FAUT

K. D. Matanzima Airport

Mthatha, South Africa
METAR FAUT 141300Z 11008KT 9000 BKN020 18/11 Q1021
Observed Flight Rules
Aug-14 @ 13:00 UTC (43 minutes ago) Marginal Visual Flight Rules
Wind Visibility Clouds
110° at 8 knots 8,996 meters
  • Broken at 2,000' AGL
Temperatures Readings
Current 18°C / 64°F
Dewpoint 11°C / 52°F
Humidity 64%
Altimeter 30.15" Hg
Pressure 1021 hPa
Elevation 732
METAR FAUT 141300Z 11008KT 9000 BKN020 18/11 Q1021
Observed Flight Rules
Aug-14 @ 13:00 UTC
(43 minutes ago)
MVFR
Wind Visibility
110° at 8 knots 8,996 meters
Clouds
  • Broken at 2,000' AGL
Temperature Dewpoint
18°C / 64°F 11°C / 52°F
Humidity Altimeter Pressure
64% 30.15" Hg 1021 hPa